createdAt,value
2024-01-05T00:02:23.621Z,94303.52
2024-01-05T00:04:53.570Z,94314.41
2024-01-05T00:07:22.867Z,94322.98
2024-01-05T00:09:52.077Z,94324.50
2024-01-05T00:12:21.912Z,94326.43
2024-01-05T00:14:51.295Z,94328.14
2024-01-05T00:17:20.960Z,94332.84
2024-01-05T00:19:51.275Z,94339.42
2024-01-05T00:22:21.472Z,94347.67
2024-01-05T00:24:50.184Z,94355.11
2024-01-05T00:27:20.794Z,94354.54
2024-01-05T00:29:50.096Z,94355.11
2024-01-05T00:32:19.876Z,94355.10
2024-01-05T00:34:49.769Z,94356.17
2024-01-05T00:37:19.016Z,94359.65
2024-01-05T00:39:48.750Z,94359.61
2024-01-05T00:42:18.154Z,94361.94
2024-01-05T00:44:47.158Z,94363.70
2024-01-05T00:47:17.563Z,94373.62
2024-01-05T00:49:48.045Z,94373.08
2024-01-05T00:52:21.238Z,94372.45
2024-01-05T00:54:50.274Z,94365.14
2024-01-05T00:57:19.660Z,94366.93
2024-01-05T00:59:49.186Z,94364.70
2024-01-05T01:02:18.457Z,94363.67
2024-01-05T01:04:47.741Z,94364.20
2024-01-05T01:07:16.934Z,94366.20
2024-01-05T01:09:46.698Z,94361.75
2024-01-05T01:12:15.384Z,94361.85
2024-01-05T01:14:44.900Z,94360.58
2024-01-05T01:17:14.337Z,94350.81
2024-01-05T01:19:44.048Z,94359.70
2024-01-05T01:22:13.353Z,94355.23
2024-01-05T01:24:42.997Z,94359.88
2024-01-05T01:27:12.953Z,94360.14
2024-01-05T01:29:42.821Z,94361.17
2024-01-05T01:32:11.434Z,94355.36
2024-01-05T01:34:40.859Z,94358.52
2024-01-05T01:37:10.240Z,94358.92
2024-01-05T01:39:39.082Z,94359.76
2024-01-05T01:42:08.378Z,94363.69
2024-01-05T01:44:38.384Z,94363.14
2024-01-05T01:47:07.342Z,94367.39
2024-01-05T01:49:38.145Z,94367.48
2024-01-05T01:52:08.393Z,94370.88
2024-01-05T01:54:39.191Z,94380.04
2024-01-05T01:57:09.993Z,94382.53
2024-01-05T01:59:42.662Z,94390.45
2024-01-05T02:02:13.839Z,94399.02
2024-01-05T02:04:44.490Z,94406.59
2024-01-05T02:07:14.023Z,94411.88
2024-01-05T02:09:42.536Z,94414.80
2024-01-05T02:12:11.992Z,94419.81
2024-01-05T02:14:42.073Z,94422.66
2024-01-05T02:17:34.478Z,94427.64
2024-01-05T02:20:03.549Z,94423.70
2024-01-05T02:22:36.368Z,94431.00
2024-01-05T02:25:05.727Z,94432.54
2024-01-05T02:27:34.853Z,94439.01
2024-01-05T02:30:04.674Z,94434.86
2024-01-05T02:32:34.250Z,94440.20
2024-01-05T02:35:04.577Z,94441.48
2024-01-05T02:37:33.816Z,94440.88
2024-01-05T02:40:03.698Z,94444.10
2024-01-05T02:42:32.941Z,94425.13
2024-01-05T02:45:02.178Z,94438.38
2024-01-05T02:47:32.583Z,94437.53
2024-01-05T02:50:05.287Z,94435.97
2024-01-05T02:52:34.819Z,94432.30
2024-01-05T02:55:04.048Z,94439.95
2024-01-05T02:57:35.212Z,94437.16
2024-01-05T03:00:04.754Z,94446.36
2024-01-05T03:02:33.959Z,94445.08
2024-01-05T03:05:07.064Z,94442.55
2024-01-05T03:07:36.613Z,94454.90
2024-01-05T03:10:05.664Z,94461.55
2024-01-05T03:12:35.149Z,94465.17
2024-01-05T03:15:05.382Z,94467.64
2024-01-05T03:17:34.309Z,94476.41
2024-01-05T03:20:04.586Z,94473.20
2024-01-05T03:22:34.715Z,94475.64
2024-01-05T03:25:04.585Z,94478.89
2024-01-05T03:27:33.984Z,94490.17
2024-01-05T03:30:02.832Z,94489.92
2024-01-05T03:32:32.108Z,94489.87
2024-01-05T03:35:02.971Z,94496.54
2024-01-05T03:37:32.473Z,94498.34
2024-01-05T03:40:02.233Z,94501.29
2024-01-05T03:42:31.376Z,94503.34
2024-01-05T03:45:01.815Z,94505.85
2024-01-05T03:47:31.184Z,94507.06
2024-01-05T03:50:01.104Z,94508.23
2024-01-05T03:52:32.220Z,94511.35
2024-01-05T03:55:02.989Z,94518.89
2024-01-05T03:57:32.683Z,94516.88
2024-01-05T04:00:02.082Z,94510.27
2024-01-05T04:02:34.073Z,94513.60
2024-01-05T04:05:03.453Z,94515.06
2024-01-05T04:07:32.651Z,94515.69
2024-01-05T04:10:02.218Z,94518.48
2024-01-05T04:12:32.489Z,94524.73
2024-01-05T04:15:02.313Z,94525.38
2024-01-05T04:17:31.112Z,94528.40
2024-01-05T04:19:59.453Z,94526.96
2024-01-05T04:22:32.382Z,94522.16
2024-01-05T04:25:01.915Z,94537.20
2024-01-05T04:27:31.059Z,94533.09
2024-01-05T04:29:59.865Z,94531.48
2024-01-05T04:32:28.809Z,94532.78
2024-01-05T04:34:57.812Z,94536.27
2024-01-05T04:37:27.424Z,94537.92
2024-01-05T04:39:56.216Z,94543.73
2024-01-05T04:42:28.116Z,94543.80
2024-01-05T04:44:57.543Z,94542.29
2024-01-05T04:47:26.454Z,94548.59
2024-01-05T04:49:55.521Z,94549.59
2024-01-05T04:52:25.736Z,94545.92
2024-01-05T04:54:54.900Z,94550.30
2024-01-05T04:57:24.175Z,94553.97
2024-01-05T04:59:55.475Z,94559.48
2024-01-05T05:02:24.761Z,94558.14
2024-01-05T05:04:54.392Z,94558.55
2024-01-05T05:07:25.807Z,94563.10
2024-01-05T05:09:55.850Z,94562.98
2024-01-05T05:12:25.613Z,94567.10
2024-01-05T05:14:55.318Z,94577.17
2024-01-05T05:17:24.368Z,94572.23
2024-01-05T05:19:56.448Z,94579.26
2024-01-05T05:22:26.720Z,94586.01
2024-01-05T05:24:55.971Z,94591.09
2024-01-05T05:27:25.609Z,94589.52
2024-01-05T05:29:54.611Z,94593.68
2024-01-05T05:32:23.631Z,94592.30
2024-01-05T05:34:54.187Z,94592.67
2024-01-05T05:37:23.699Z,94592.16
2024-01-05T05:39:52.820Z,94591.10
2024-01-05T05:42:23.425Z,94597.60
2024-01-05T05:44:52.425Z,94599.56
2024-01-05T05:47:21.228Z,94601.73
2024-01-05T05:49:50.792Z,94612.60
2024-01-05T05:52:20.391Z,94613.58
2024-01-05T05:54:50.218Z,94610.69
2024-01-05T05:57:20.717Z,94618.25
2024-01-05T05:59:51.808Z,94630.33
2024-01-05T06:02:21.795Z,94633.93
2024-01-05T06:04:51.716Z,94639.30
2024-01-05T06:07:20.563Z,94645.77
2024-01-05T06:09:49.513Z,94653.08
2024-01-05T06:12:19.425Z,94654.80
2024-01-05T06:14:49.348Z,94657.17
2024-01-05T06:17:20.804Z,94659.67
2024-01-05T06:19:50.020Z,94659.55
2024-01-05T06:22:19.829Z,94657.48
2024-01-05T06:24:49.029Z,94666.89
2024-01-05T06:27:22.350Z,94666.93
2024-01-05T06:29:58.301Z,94665.45
2024-01-05T06:32:27.691Z,94665.80
2024-01-05T06:34:57.410Z,94669.23
2024-01-05T06:37:27.018Z,94670.80
2024-01-05T06:40:03.041Z,94671.07
2024-01-05T06:42:32.861Z,94668.52
2024-01-05T06:45:02.629Z,94665.99
2024-01-05T06:47:31.172Z,94665.17
2024-01-05T06:50:00.220Z,94676.32
2024-01-05T06:52:30.364Z,94681.77
2024-01-05T06:55:01.161Z,94680.67
2024-01-05T06:57:33.609Z,94679.27
2024-01-05T07:00:07.657Z,94679.86
2024-01-05T07:02:39.049Z,94686.15
2024-01-05T07:05:10.470Z,94687.91
2024-01-05T07:07:43.327Z,94686.84
2024-01-05T07:10:12.837Z,94695.16
2024-01-05T07:12:43.560Z,94694.56
2024-01-05T07:15:13.527Z,94700.67
2024-01-05T07:17:45.270Z,94702.66
2024-01-05T07:20:14.788Z,94702.91
2024-01-05T07:22:44.767Z,94702.50
2024-01-05T07:25:14.906Z,94706.88
2024-01-05T07:27:43.262Z,94706.17
2024-01-05T07:30:15.002Z,94707.45
2024-01-05T07:32:47.013Z,94705.80
2024-01-05T07:35:17.787Z,94705.55
2024-01-05T07:37:48.489Z,94707.98
2024-01-05T07:40:18.214Z,94714.02
2024-01-05T07:42:47.510Z,94714.55
2024-01-05T07:45:17.369Z,94722.31
2024-01-05T07:47:49.753Z,94728.18
2024-01-05T07:50:20.091Z,94733.98
2024-01-05T07:52:50.149Z,94743.05
2024-01-05T07:55:19.868Z,94749.92
2024-01-05T07:57:48.962Z,94750.86
2024-01-05T08:00:19.879Z,94752.12
2024-01-05T08:02:52.223Z,94760.88
2024-01-05T08:05:22.767Z,94763.65
2024-01-05T08:07:52.008Z,94763.50
2024-01-05T08:10:22.925Z,94769.49
2024-01-05T08:12:51.941Z,94772.30
2024-01-05T08:15:22.747Z,94784.45
2024-01-05T08:17:51.696Z,94785.58
2024-01-05T08:20:22.347Z,94791.58
2024-01-05T08:22:51.586Z,94795.63
2024-01-05T08:25:22.749Z,94801.48
2024-01-05T08:27:53.919Z,94796.60
2024-01-05T08:30:22.720Z,94798.34
2024-01-05T08:32:56.775Z,94794.55
2024-01-05T08:35:25.977Z,94795.56
2024-01-05T08:37:54.945Z,94793.27
2024-01-05T08:40:27.474Z,94794.50
2024-01-05T08:42:56.911Z,94793.89
2024-01-05T08:45:29.332Z,94789.20
2024-01-05T08:47:59.301Z,94794.48
2024-01-05T08:50:28.608Z,94794.67
2024-01-05T08:52:58.883Z,94796.46
2024-01-05T08:55:28.218Z,94798.38
2024-01-05T08:58:00.097Z,94797.70
2024-01-05T09:00:30.247Z,94798.55
2024-01-05T09:02:59.995Z,94801.45
2024-01-05T09:05:30.964Z,94792.84
2024-01-05T09:08:01.213Z,94795.67
2024-01-05T09:10:34.524Z,94793.23
2024-01-05T09:13:03.592Z,94797.41
2024-01-05T09:15:33.662Z,94792.78
2024-01-05T09:18:07.084Z,94797.79
2024-01-05T09:20:35.850Z,94802.44
2024-01-05T09:23:08.104Z,94810.41
2024-01-05T09:25:39.649Z,94807.73
2024-01-05T09:28:10.714Z,94805.59
2024-01-05T09:30:40.647Z,94802.50
2024-01-05T09:33:09.550Z,94794.54
2024-01-05T09:35:38.380Z,94791.77
2024-01-05T09:38:07.779Z,94786.20
2024-01-05T09:40:37.674Z,94790.51
2024-01-05T09:43:09.935Z,94789.05
2024-01-05T09:45:40.404Z,94783.01
2024-01-05T09:48:12.145Z,94778.95
2024-01-05T09:50:44.460Z,94776.17
2024-01-05T09:53:15.172Z,94769.76
2024-01-05T09:55:44.371Z,94757.39
2024-01-05T09:58:16.237Z,94758.59
2024-01-05T10:00:49.421Z,94755.05
2024-01-05T10:03:24.442Z,94751.59
2024-01-05T10:05:55.245Z,94748.50
2024-01-05T10:08:24.872Z,94751.38
2024-01-05T10:10:58.083Z,94750.84
2024-01-05T10:13:26.936Z,94740.35
2024-01-05T10:15:58.026Z,94737.98
2024-01-05T10:18:29.656Z,94740.48
2024-01-05T10:21:10.495Z,94751.13
2024-01-05T10:23:44.789Z,94756.61
2024-01-05T10:26:20.296Z,94752.65
2024-01-05T10:28:50.883Z,94757.95
2024-01-05T10:31:20.497Z,94752.64
2024-01-05T10:33:54.341Z,94755.07
2024-01-05T10:36:24.252Z,94755.82
2024-01-05T10:38:53.474Z,94760.48
2024-01-05T10:41:24.530Z,94754.55
2024-01-05T10:43:55.805Z,94742.23
2024-01-05T10:46:26.279Z,94748.10
2024-01-05T10:48:58.634Z,94741.71
2024-01-05T10:51:28.959Z,94738.96
2024-01-05T10:53:58.394Z,94738.52
2024-01-05T10:56:30.689Z,94744.87
2024-01-05T10:59:00.701Z,94732.16
2024-01-05T11:01:32.830Z,94723.05
2024-01-05T11:04:04.527Z,94729.03
2024-01-05T11:06:36.266Z,94733.84
2024-01-05T11:09:18.760Z,94728.95
2024-01-05T11:11:56.488Z,94733.17
2024-01-05T11:15:18.605Z,94731.09
2024-01-05T11:18:28.247Z,94732.07
2024-01-05T11:21:14.848Z,94729.24
2024-01-05T11:23:45.007Z,94733.27
2024-01-05T11:26:37.572Z,94728.59
2024-01-05T11:29:06.640Z,94721.77
2024-01-05T11:31:54.514Z,94723.70
2024-01-05T11:34:37.873Z,94723.52
2024-01-05T11:37:07.436Z,94723.28
2024-01-05T11:39:51.645Z,94727.45
2024-01-05T11:42:30.579Z,94732.22
2024-01-05T11:45:04.431Z,94737.13
2024-01-05T11:47:48.079Z,94732.70
2024-01-05T11:50:30.179Z,94739.42
2024-01-05T11:53:08.096Z,94735.23
2024-01-05T11:55:41.799Z,94745.37
2024-01-05T11:58:16.530Z,94748.52
2024-01-05T12:00:48.081Z,94754.45
2024-01-05T12:03:18.953Z,94756.54
2024-01-05T12:05:51.246Z,94760.03
2024-01-05T12:08:24.137Z,94760.48
2024-01-05T12:10:56.759Z,94769.67
2024-01-05T12:13:30.652Z,94771.97
2024-01-05T12:16:03.914Z,94768.91
2024-01-05T12:18:38.384Z,94770.75
2024-01-05T12:21:15.023Z,94776.36
2024-01-05T12:23:57.894Z,94777.23
2024-01-05T12:26:30.547Z,94782.92
2024-01-05T12:28:59.429Z,94780.47
2024-01-05T12:31:28.777Z,94781.33
2024-01-05T12:33:58.271Z,94780.52
2024-01-05T12:36:33.058Z,94785.72
2024-01-05T12:39:13.550Z,94780.80
2024-01-05T12:41:47.499Z,94787.78
2024-01-05T12:44:17.529Z,94788.48
2024-01-05T12:46:49.127Z,94788.80
2024-01-05T12:49:24.018Z,94790.41
2024-01-05T12:51:54.659Z,94791.99
2024-01-05T12:54:26.910Z,94788.13
2024-01-05T12:56:57.075Z,94789.33
2024-01-05T12:59:26.578Z,94789.01
2024-01-05T13:02:01.657Z,94790.88
2024-01-05T13:04:38.252Z,94799.52
2024-01-05T13:07:12.710Z,94797.92
2024-01-05T13:09:42.536Z,94801.30
2024-01-05T13:12:12.516Z,94804.66
2024-01-05T13:14:41.740Z,94808.90
2024-01-05T13:17:10.974Z,94826.00
2024-01-05T13:19:49.296Z,94826.23
2024-01-05T13:22:17.821Z,94833.38
2024-01-05T13:24:49.305Z,94836.83
2024-01-05T13:27:19.448Z,94838.08
2024-01-05T13:29:51.121Z,94840.45
2024-01-05T13:32:21.942Z,94844.00
2024-01-05T13:34:52.072Z,94845.45
2024-01-05T13:37:25.171Z,94843.27
2024-01-05T13:39:54.707Z,94846.02
2024-01-05T13:42:26.591Z,94846.59
2024-01-05T13:44:57.162Z,94848.09
2024-01-05T13:47:28.993Z,94836.98
2024-01-05T13:49:57.996Z,94844.63
2024-01-05T13:52:28.694Z,94847.83
2024-01-05T13:54:59.185Z,94849.86
2024-01-05T13:57:29.128Z,94850.88
2024-01-05T13:59:59.146Z,94857.68
2024-01-05T14:02:29.272Z,94862.34
2024-01-05T14:05:00.665Z,94871.89
2024-01-05T14:07:30.518Z,94874.47
2024-01-05T14:10:01.410Z,94873.58
2024-01-05T14:12:32.765Z,94877.59
2024-01-05T14:15:05.333Z,94881.23
2024-01-05T14:17:35.013Z,94880.63
2024-01-05T14:20:10.237Z,94887.43
2024-01-05T14:22:39.441Z,94891.09
2024-01-05T14:25:10.189Z,94894.05
2024-01-05T14:27:40.581Z,94896.79
2024-01-05T14:30:09.912Z,94893.61
2024-01-05T14:32:39.130Z,94891.61
2024-01-05T14:35:09.136Z,94893.28
2024-01-05T14:37:40.435Z,94893.54
2024-01-05T14:40:12.741Z,94893.96
2024-01-05T14:42:41.676Z,94898.98
2024-01-05T14:45:12.026Z,94901.02
2024-01-05T14:47:43.017Z,94904.14
2024-01-05T14:50:12.704Z,94903.64
2024-01-05T14:52:52.310Z,94911.30
2024-01-05T14:55:29.628Z,94918.65
2024-01-05T14:57:59.280Z,94923.29
2024-01-05T15:00:28.073Z,94926.49
2024-01-05T15:03:00.082Z,94933.58
2024-01-05T15:05:29.183Z,94934.54
2024-01-05T15:07:58.524Z,94932.07
2024-01-05T15:10:29.015Z,94933.06
2024-01-05T15:13:01.013Z,94933.15
2024-01-05T15:15:30.315Z,94935.34
2024-01-05T15:18:00.890Z,94935.13
2024-01-05T15:20:30.373Z,94931.73
2024-01-05T15:22:59.669Z,94935.36
2024-01-05T15:25:32.797Z,94936.80
2024-01-05T15:28:01.910Z,94935.91
2024-01-05T15:30:31.894Z,94933.71
2024-01-05T15:33:01.512Z,94930.02
2024-01-05T15:35:35.788Z,94930.41
2024-01-05T15:38:07.852Z,94927.98
2024-01-05T15:40:38.894Z,94935.09
2024-01-05T15:43:08.936Z,94931.67
2024-01-05T15:45:39.798Z,94927.27
2024-01-05T15:48:11.956Z,94920.66
2024-01-05T15:50:41.815Z,94920.14
2024-01-05T15:53:10.523Z,94927.05
2024-01-05T15:55:41.368Z,94921.06
2024-01-05T15:58:12.889Z,94918.15
2024-01-05T16:00:46.923Z,94921.45
2024-01-05T16:03:17.923Z,94915.91
2024-01-05T16:05:46.956Z,94916.46
2024-01-05T16:08:17.945Z,94921.73
2024-01-05T16:10:48.682Z,94922.20
2024-01-05T16:13:19.395Z,94922.80
2024-01-05T16:15:51.428Z,94917.92
2024-01-05T16:18:23.085Z,94923.81
2024-01-05T16:20:52.874Z,94920.25
2024-01-05T16:23:22.978Z,94932.21
2024-01-05T16:25:53.409Z,94935.90
2024-01-05T16:28:24.964Z,94939.83
2024-01-05T16:30:54.664Z,94946.57
2024-01-05T16:33:25.089Z,94950.03
2024-01-05T16:35:55.085Z,94950.73
2024-01-05T16:38:24.591Z,94950.58
2024-01-05T16:40:55.780Z,94951.77
2024-01-05T16:43:25.579Z,94954.02
2024-01-05T16:45:55.976Z,94954.20
2024-01-05T16:48:28.023Z,94952.35
2024-01-05T16:50:57.325Z,94953.07
2024-01-05T16:53:29.715Z,94956.50
2024-01-05T16:56:00.111Z,94956.03
2024-01-05T16:58:29.131Z,94956.00
2024-01-05T17:00:58.393Z,94958.49
2024-01-05T17:03:30.058Z,94958.23
2024-01-05T17:05:59.250Z,94956.89
2024-01-05T17:08:29.096Z,94957.04
2024-01-05T17:10:59.530Z,94959.40
2024-01-05T17:13:29.186Z,94956.41
2024-01-05T17:15:58.631Z,94954.89
2024-01-05T17:18:28.594Z,94955.70
2024-01-05T17:20:58.970Z,94961.52
2024-01-05T17:23:28.736Z,94963.16
2024-01-05T17:26:00.925Z,94960.27
2024-01-05T17:28:30.444Z,94963.64
2024-01-05T17:30:59.620Z,94962.38
2024-01-05T17:33:29.441Z,94958.05
2024-01-05T17:35:59.733Z,94957.19
2024-01-05T17:38:29.011Z,94961.40
2024-01-05T17:40:59.024Z,94956.92
2024-01-05T17:43:28.132Z,94959.17
2024-01-05T17:46:05.385Z,94960.66
2024-01-05T17:48:34.739Z,94957.91
2024-01-05T17:51:04.353Z,94964.13
2024-01-05T17:53:34.509Z,94965.98
2024-01-05T17:56:02.994Z,94968.25
2024-01-05T17:58:32.403Z,94969.63
2024-01-05T18:01:07.153Z,94970.69
2024-01-05T18:03:39.588Z,94973.64
2024-01-05T18:06:10.767Z,94972.27
2024-01-05T18:08:39.577Z,94971.21
2024-01-05T18:11:10.404Z,94974.46
2024-01-05T18:13:40.358Z,94972.46
2024-01-05T18:16:09.686Z,94972.67
2024-01-05T18:18:41.398Z,94974.98
2024-01-05T18:21:10.705Z,94971.98
2024-01-05T18:23:41.629Z,94967.39
2024-01-05T18:26:17.451Z,94961.38
2024-01-05T18:28:47.607Z,94964.05
2024-01-05T18:31:32.050Z,94957.06
2024-01-05T18:34:01.502Z,94957.05
2024-01-05T18:36:30.524Z,94954.58
2024-01-05T18:38:59.616Z,94957.98
2024-01-05T18:41:32.132Z,94953.39
2024-01-05T18:44:03.071Z,94951.63
2024-01-05T18:46:33.633Z,94942.27
2024-01-05T18:49:04.362Z,94937.95
2024-01-05T18:51:36.831Z,94932.88
2024-01-05T18:54:11.196Z,94928.84
2024-01-05T18:56:41.490Z,94928.39
2024-01-05T18:59:12.367Z,94928.13
2024-01-05T19:01:42.586Z,94932.20
2024-01-05T19:04:13.200Z,94933.25
2024-01-05T19:06:44.361Z,94938.46
2024-01-05T19:09:14.889Z,94942.52
2024-01-05T19:11:44.554Z,94944.31
2024-01-05T19:14:15.536Z,94941.84
2024-01-05T19:16:46.068Z,94943.32
2024-01-05T19:19:17.869Z,94944.73
2024-01-05T19:21:55.918Z,94942.36
2024-01-05T19:24:29.543Z,94937.09
2024-01-05T19:26:59.852Z,94937.64
2024-01-05T19:29:31.128Z,94932.17
2024-01-05T19:32:00.058Z,94927.05
2024-01-05T19:34:30.742Z,94920.23
2024-01-05T19:36:59.495Z,94917.40
2024-01-05T19:39:30.149Z,94921.74
2024-01-05T19:42:01.413Z,94920.89
2024-01-05T19:44:30.582Z,94915.59
2024-01-05T19:47:01.146Z,94917.56
2024-01-05T19:49:30.903Z,94913.81
2024-01-05T19:52:01.049Z,94910.76
2024-01-05T19:54:31.055Z,94912.75
2024-01-05T19:57:01.446Z,94912.02
2024-01-05T19:59:31.896Z,94906.20
2024-01-05T20:02:02.768Z,94904.29
2024-01-05T20:04:33.332Z,94905.29
2024-01-05T20:07:04.757Z,94898.57
2024-01-05T20:09:34.238Z,94895.16
2024-01-05T20:12:06.293Z,94893.70
2024-01-05T20:14:36.292Z,94892.36
2024-01-05T20:17:05.483Z,94891.88
2024-01-05T20:19:35.172Z,94889.57
2024-01-05T20:22:07.208Z,94890.30
2024-01-05T20:24:36.003Z,94887.73
2024-01-05T20:27:07.802Z,94881.13
2024-01-05T20:29:41.279Z,94881.16
2024-01-05T20:32:12.041Z,94877.39
2024-01-05T20:34:41.446Z,94873.93
2024-01-05T20:37:11.414Z,94880.38
2024-01-05T20:39:41.626Z,94879.94
2024-01-05T20:42:11.643Z,94881.23
2024-01-05T20:44:45.676Z,94885.77
2024-01-05T20:47:14.848Z,94886.61
2024-01-05T20:49:44.701Z,94886.04
2024-01-05T20:52:15.322Z,94893.58
2024-01-05T20:54:45.273Z,94893.27
2024-01-05T20:57:15.616Z,94899.70
2024-01-05T20:59:45.994Z,94905.02
2024-01-05T21:02:14.984Z,94897.43
2024-01-05T21:04:48.308Z,94901.88
2024-01-05T21:07:18.163Z,94899.07
2024-01-05T21:09:50.272Z,94899.04
2024-01-05T21:12:21.448Z,94902.39
2024-01-05T21:14:51.160Z,94898.28
2024-01-05T21:17:21.090Z,94895.48
2024-01-05T21:19:50.098Z,94893.14
2024-01-05T21:22:21.575Z,94899.39
2024-01-05T21:24:53.323Z,94897.05
2024-01-05T21:27:22.510Z,94895.17
2024-01-05T21:29:52.317Z,94892.79
2024-01-05T21:32:24.336Z,94891.52
2024-01-05T21:34:58.538Z,94894.62
2024-01-05T21:37:28.452Z,94894.25
2024-01-05T21:39:58.346Z,94890.09
2024-01-05T21:42:28.642Z,94886.20
2024-01-05T21:44:59.046Z,94889.51
2024-01-05T21:47:30.217Z,94889.84
2024-01-05T21:50:00.850Z,94896.45
2024-01-05T21:52:30.746Z,94889.28
2024-01-05T21:55:00.344Z,94886.54
2024-01-05T21:57:31.702Z,94881.36
2024-01-05T22:00:02.800Z,94881.20
2024-01-05T22:02:36.153Z,94878.90
2024-01-05T22:05:05.650Z,94877.52
2024-01-05T22:07:35.665Z,94870.56
2024-01-05T22:10:05.868Z,94870.94
2024-01-05T22:12:36.336Z,94871.04
2024-01-05T22:15:08.547Z,94870.89
2024-01-05T22:17:38.170Z,94869.11
2024-01-05T22:20:11.448Z,94868.46
2024-01-05T22:22:40.715Z,94872.02
2024-01-05T22:25:13.278Z,94868.71
2024-01-05T22:27:42.097Z,94864.27
2024-01-05T22:30:12.470Z,94862.99
2024-01-05T22:32:44.594Z,94858.56
2024-01-05T22:35:15.034Z,94854.61
2024-01-05T22:37:44.199Z,94852.93
2024-01-05T22:40:15.749Z,94855.84
2024-01-05T22:42:46.332Z,94854.40
2024-01-05T22:45:16.211Z,94844.98
2024-01-05T22:47:51.093Z,94847.67
2024-01-05T22:50:20.893Z,94847.17
2024-01-05T22:52:50.256Z,94849.27
2024-01-05T22:55:21.483Z,94850.53
2024-01-05T22:57:50.748Z,94846.20
2024-01-05T23:00:22.925Z,94839.75
2024-01-05T23:02:52.560Z,94840.98
2024-01-05T23:05:23.349Z,94846.75
2024-01-05T23:07:52.829Z,94840.81
2024-01-05T23:10:22.937Z,94844.83
2024-01-05T23:12:53.158Z,94840.23
2024-01-05T23:15:22.591Z,94835.59
2024-01-05T23:17:53.676Z,94837.39
2024-01-05T23:20:22.610Z,94834.83
2024-01-05T23:22:52.746Z,94834.05
2024-01-05T23:25:22.668Z,94830.71
2024-01-05T23:27:52.789Z,94829.13
2024-01-05T23:30:22.347Z,94829.64
2024-01-05T23:32:52.704Z,94829.66
2024-01-05T23:35:21.870Z,94829.17
2024-01-05T23:37:51.060Z,94825.80
2024-01-05T23:40:19.452Z,94826.50
2024-01-05T23:42:49.939Z,94829.86
2024-01-05T23:45:21.282Z,94825.27
2024-01-05T23:47:52.920Z,94818.05
2024-01-05T23:50:21.783Z,94819.64
2024-01-05T23:52:51.203Z,94823.20
2024-01-05T23:55:21.636Z,94820.11
2024-01-05T23:57:50.999Z,94828.06
